Main page
METAR-TAF:

METAR-TAF

Airports :

Osijek Airport

Osijek, Croatia

latitude: 45-27N, longitude: 018-48E, elevation: 88 m

Current weather observation

The report was made 30 minutes ago, at 06:30 UTC
Wind 5 kt from the Southeast
Temperature 6°C
Humidity 100%
Pressure 1014 hPa
Visibility: 2000 m
mist

METAR: LDOS 210630Z 14005KT 2000 BR NSC 06/06 Q1014

Time: 08:00 (07:00 UTC)

Forecast

The report was made 1 hour and 35 minutes ago, at 05:25 UTC
Forecast valid from 21 at 06 UTC to 22 at 06 UTC
Wind 6 kt from the East/Southeast
Visibility 10 km or more
no clouds below 1500 m and no cumulonimbus
Probability 30%
from 21 at 06 UTC to 21 at 09 UTC
Visibility: 1000 m
Broken clouds at a height of 700 ft
patches of fog
Becoming
from 22 at 00 UTC to 22 at 02 UTC
Visibility: 3000 m
mist
Becoming
from 22 at 02 UTC to 22 at 04 UTC
Visibility: 0300 m
fog

TAF: LDOS 210525Z 2106/2206 12006KT CAVOK TX15/2112Z TN06/2205Z PROB30 2106/2109 1000 BCFG BKN007 BECMG 2200/2202 3000 BR BECMG 2202/2204 0300 FG

Weather observations and forecasts of more than 4000 airports (METAR and TAF reports).

The available stations are represented by yellow and red dots on the map.

Hover mouse over dot to see the name of the station.

Then click to see weather observations and forecasts.

To change the map : click on the green buttons with a black cross to zoom in, on the green button with a dash to zoom out, or on the green arrows for adjacent maps.


METAR-TAF: